createdAt,value
2023-04-19T00:01:52.200Z,8.94
2023-04-19T00:04:29.796Z,8.98
2023-04-19T00:07:00.707Z,8.95
2023-04-19T00:09:32.116Z,8.94
2023-04-19T00:14:37.209Z,8.87
2023-04-19T00:17:06.742Z,8.88
2023-04-19T00:19:36.429Z,8.86
2023-04-19T00:22:10.688Z,8.84
2023-04-19T00:24:42.051Z,8.80
2023-04-19T00:27:11.320Z,8.75
2023-04-19T00:29:44.142Z,8.71
2023-04-19T00:32:18.536Z,8.68
2023-04-19T00:34:49.239Z,8.61
2023-04-19T00:37:18.493Z,8.49
2023-04-19T00:39:49.626Z,8.63
2023-04-19T00:42:19.131Z,8.59
2023-04-19T00:44:50.014Z,8.53
2023-04-19T00:49:54.688Z,8.55
2023-04-19T00:52:24.401Z,8.56
2023-04-19T00:55:01.243Z,8.51
2023-04-19T00:57:34.438Z,8.50
2023-04-19T01:00:05.961Z,8.48
2023-04-19T01:02:35.493Z,8.55
2023-04-19T01:05:05.228Z,8.32
2023-04-19T01:07:40.063Z,8.40
2023-04-19T01:10:11.953Z,8.44
2023-04-19T01:12:46.465Z,8.48
2023-04-19T01:15:15.839Z,8.43
2023-04-19T01:17:45.598Z,8.39
2023-04-19T01:20:15.163Z,8.33
2023-04-19T01:22:46.927Z,8.29
2023-04-19T01:27:56.111Z,8.29
2023-04-19T01:30:26.838Z,8.10
2023-04-19T01:32:58.122Z,8.22
2023-04-19T01:35:27.542Z,8.20
2023-04-19T01:37:59.118Z,8.22
2023-04-19T01:40:28.727Z,8.20
2023-04-19T01:42:57.926Z,8.17
2023-04-19T01:45:33.596Z,8.16
2023-04-19T01:48:04.255Z,8.10
2023-04-19T01:50:38.612Z,8.08
2023-04-19T01:53:09.972Z,8.12
2023-04-19T01:55:44.701Z,8.12
2023-04-19T01:58:13.858Z,8.04
2023-04-19T02:00:48.602Z,8.10
2023-04-19T02:03:23.149Z,8.10
2023-04-19T02:05:52.716Z,8.04
2023-04-19T02:08:27.311Z,8.02
2023-04-19T02:10:56.841Z,8.00
2023-04-19T02:13:26.203Z,7.97
2023-04-19T02:18:26.100Z,7.92
2023-04-19T02:20:55.310Z,7.85
2023-04-19T02:23:31.503Z,7.85
2023-04-19T02:26:03.114Z,7.83
2023-04-19T02:28:32.667Z,7.78
2023-04-19T02:31:06.604Z,7.82
2023-04-19T02:33:38.199Z,7.74
2023-04-19T02:36:12.584Z,7.90
2023-04-19T02:38:43.937Z,7.94
2023-04-19T02:41:13.173Z,7.94
2023-04-19T02:43:42.394Z,7.94
2023-04-19T02:46:18.404Z,7.99
2023-04-19T02:48:48.104Z,8.04
2023-04-19T02:51:18.438Z,8.04
2023-04-19T02:53:49.855Z,8.14
2023-04-19T02:56:24.332Z,8.15
2023-04-19T02:58:56.810Z,8.15
2023-04-19T03:01:26.317Z,8.20
2023-04-19T03:03:56.234Z,8.19
2023-04-19T03:06:25.923Z,8.23
2023-04-19T03:08:57.282Z,8.22
2023-04-19T03:11:26.781Z,8.25
2023-04-19T03:14:01.385Z,8.27
2023-04-19T03:16:31.146Z,8.34
2023-04-19T03:19:06.354Z,8.32
2023-04-19T03:21:41.421Z,8.28
2023-04-19T03:24:13.074Z,8.31
2023-04-19T03:26:47.201Z,8.34
2023-04-19T03:29:17.503Z,8.34
2023-04-19T03:31:59.198Z,8.41
2023-04-19T03:34:32.580Z,8.42
2023-04-19T03:37:02.358Z,8.47
2023-04-19T03:39:35.350Z,8.52
2023-04-19T03:42:08.184Z,8.62
2023-04-19T03:44:49.742Z,8.71
2023-04-19T03:47:26.422Z,8.77
2023-04-19T03:49:59.134Z,8.85
2023-04-19T03:52:31.063Z,8.94
2023-04-19T03:55:05.740Z,9.03
2023-04-19T03:57:41.699Z,9.16
2023-04-19T04:00:29.127Z,9.23
2023-04-19T04:05:37.490Z,9.39
2023-04-19T04:08:07.035Z,9.49
2023-04-19T04:10:38.467Z,9.66
2023-04-19T04:13:09.288Z,9.95
2023-04-19T04:15:50.022Z,9.99
2023-04-19T04:18:19.669Z,10.06
2023-04-19T04:20:49.854Z,10.26
2023-04-19T04:23:26.141Z,10.37
2023-04-19T04:26:02.323Z,10.36
2023-04-19T04:28:46.843Z,10.41
2023-04-19T04:31:17.723Z,10.37
2023-04-19T04:33:53.446Z,10.37
2023-04-19T04:36:25.698Z,10.32
2023-04-19T04:38:56.865Z,9.99
2023-04-19T04:41:31.047Z,10.27
2023-04-19T04:44:12.820Z,10.29
2023-04-19T04:46:45.640Z,10.33
2023-04-19T04:49:19.908Z,10.39
2023-04-19T04:51:49.766Z,10.46
2023-04-19T04:54:19.795Z,10.49
2023-04-19T04:56:56.422Z,10.46
2023-04-19T04:59:31.473Z,10.56
2023-04-19T05:02:00.977Z,10.57
2023-04-19T05:04:30.405Z,10.67
2023-04-19T05:07:01.617Z,10.71
2023-04-19T05:09:36.257Z,10.67
2023-04-19T05:12:08.533Z,10.68
2023-04-19T05:14:38.390Z,10.70
2023-04-19T05:17:08.060Z,10.71
2023-04-19T05:19:42.773Z,10.77
2023-04-19T05:22:13.196Z,10.80
2023-04-19T05:24:42.634Z,10.78
2023-04-19T05:27:14.737Z,10.74
2023-04-19T05:29:44.801Z,10.71
2023-04-19T05:32:14.050Z,10.74
2023-04-19T05:34:50.754Z,10.77
2023-04-19T05:37:23.843Z,10.79
2023-04-19T05:39:54.191Z,10.73
2023-04-19T05:42:25.574Z,10.70
2023-04-19T05:44:54.833Z,10.73
2023-04-19T05:47:25.077Z,10.89
2023-04-19T05:50:11.298Z,11.06
2023-04-19T05:52:50.874Z,11.10
2023-04-19T05:55:25.521Z,11.14
2023-04-19T05:57:56.707Z,11.08
2023-04-19T06:00:37.835Z,10.99
2023-04-19T06:03:12.941Z,11.08
2023-04-19T06:05:42.983Z,11.14
2023-04-19T06:08:12.467Z,10.89
2023-04-19T06:10:57.112Z,11.16
2023-04-19T06:13:35.781Z,11.19
2023-04-19T06:18:45.083Z,11.30
2023-04-19T06:21:14.368Z,11.46
2023-04-19T06:23:48.820Z,11.56
2023-04-19T06:26:18.240Z,11.60
2023-04-19T06:28:49.674Z,11.66
2023-04-19T06:31:19.651Z,11.77
2023-04-19T06:33:48.987Z,11.79
2023-04-19T06:36:23.304Z,11.80
2023-04-19T06:38:53.173Z,11.81
2023-04-19T06:41:22.734Z,11.99
2023-04-19T06:43:53.846Z,12.06
2023-04-19T06:46:23.573Z,12.17
2023-04-19T06:48:52.856Z,12.28
2023-04-19T06:51:27.253Z,12.19
2023-04-19T06:53:56.652Z,12.24
2023-04-19T06:56:50.413Z,12.40
2023-04-19T06:59:23.073Z,12.46
2023-04-19T07:01:52.754Z,12.66
2023-04-19T07:04:22.513Z,12.76
2023-04-19T07:06:52.660Z,12.67
2023-04-19T07:09:21.834Z,12.63
2023-04-19T07:11:51.288Z,12.64
2023-04-19T07:14:23.443Z,12.72
2023-04-19T07:16:53.388Z,12.76
2023-04-19T07:19:23.265Z,12.76
2023-04-19T07:21:58.303Z,12.78
2023-04-19T07:24:29.412Z,12.75
2023-04-19T07:26:58.716Z,12.72
2023-04-19T07:29:37.654Z,12.81
2023-04-19T07:32:07.639Z,12.88
2023-04-19T07:34:38.622Z,12.85
2023-04-19T07:37:10.469Z,12.92
2023-04-19T07:39:40.438Z,13.01
2023-04-19T07:42:09.897Z,13.15
2023-04-19T07:44:46.395Z,13.23
2023-04-19T07:47:22.340Z,13.40
2023-04-19T07:49:54.414Z,13.43
2023-04-19T07:52:23.838Z,13.47
2023-04-19T07:54:53.102Z,13.53
2023-04-19T07:57:22.574Z,13.63
2023-04-19T08:00:02.655Z,13.80
2023-04-19T08:02:51.377Z,13.80
2023-04-19T08:05:21.298Z,13.91
2023-04-19T08:07:51.023Z,13.88
2023-04-19T08:10:22.210Z,13.83
2023-04-19T08:13:05.065Z,13.83
2023-04-19T08:16:20.239Z,13.82
2023-04-19T08:18:27.352Z,13.76
2023-04-19T08:20:56.945Z,13.73
2023-04-19T08:23:32.065Z,13.85
2023-04-19T08:26:16.136Z,13.79
2023-04-19T08:28:45.342Z,13.69
2023-04-19T08:31:16.790Z,13.76
2023-04-19T08:33:51.172Z,13.91
2023-04-19T08:36:25.568Z,14.06
2023-04-19T08:39:10.038Z,14.12
2023-04-19T08:41:48.010Z,14.08
2023-04-19T08:44:32.512Z,14.11
2023-04-19T08:47:09.056Z,14.14
2023-04-19T08:49:43.164Z,14.21
2023-04-19T08:52:19.182Z,14.24
2023-04-19T08:54:48.746Z,14.19
2023-04-19T08:57:23.205Z,14.21
2023-04-19T08:59:55.400Z,14.24
2023-04-19T09:02:48.114Z,14.45
2023-04-19T09:05:18.972Z,14.53
2023-04-19T09:07:53.660Z,14.59
2023-04-19T09:10:25.687Z,14.61
2023-04-19T09:13:05.305Z,14.59
2023-04-19T09:15:46.136Z,14.58
2023-04-19T09:18:18.974Z,14.63
2023-04-19T09:20:48.965Z,14.60
2023-04-19T09:23:25.442Z,14.53
2023-04-19T09:26:21.533Z,14.52
2023-04-19T09:28:58.862Z,14.55
2023-04-19T09:31:50.182Z,14.54
2023-04-19T09:34:23.814Z,14.45
2023-04-19T09:37:04.431Z,14.42
2023-04-19T09:39:41.497Z,14.51
2023-04-19T09:42:11.066Z,14.57
2023-04-19T09:47:34.710Z,14.54
2023-04-19T09:50:21.945Z,14.56
2023-04-19T09:52:52.993Z,14.55
2023-04-19T09:55:30.197Z,14.52
2023-04-19T09:58:01.014Z,14.51
2023-04-19T10:00:36.017Z,14.57
2023-04-19T10:03:12.804Z,14.71
2023-04-19T10:05:45.654Z,14.75
2023-04-19T10:08:16.513Z,14.73
2023-04-19T10:10:48.986Z,14.77
2023-04-19T10:13:27.089Z,14.76
2023-04-19T10:16:01.803Z,14.77
2023-04-19T10:18:38.580Z,15.04
2023-04-19T10:21:12.668Z,15.17
2023-04-19T10:23:42.471Z,15.31
2023-04-19T10:26:11.714Z,15.27
2023-04-19T10:28:41.080Z,15.35
2023-04-19T10:31:14.880Z,15.33
2023-04-19T10:33:44.331Z,15.33
2023-04-19T10:36:17.782Z,15.25
2023-04-19T10:38:55.171Z,15.34
2023-04-19T10:41:24.955Z,15.46
2023-04-19T10:44:15.011Z,15.51
2023-04-19T10:46:44.403Z,15.56
2023-04-19T10:49:13.912Z,15.49
2023-04-19T10:51:54.561Z,15.51
2023-04-19T10:54:32.031Z,15.41
2023-04-19T10:57:06.361Z,15.25
2023-04-19T10:59:36.886Z,15.51
2023-04-19T11:02:08.059Z,15.55
2023-04-19T11:05:14.086Z,15.66
2023-04-19T11:07:45.889Z,15.65
2023-04-19T11:10:15.037Z,15.75
2023-04-19T11:12:45.915Z,15.60
2023-04-19T11:15:16.004Z,15.32
2023-04-19T11:17:45.965Z,15.38
2023-04-19T11:20:15.472Z,15.42
2023-04-19T11:22:52.980Z,15.40
2023-04-19T11:25:24.847Z,15.35
2023-04-19T11:27:55.783Z,15.32
2023-04-19T11:30:33.186Z,15.33
2023-04-19T11:33:02.979Z,15.34
2023-04-19T11:35:32.356Z,15.34
2023-04-19T11:38:04.845Z,15.42
2023-04-19T11:40:34.579Z,15.40
2023-04-19T11:43:10.305Z,15.41
2023-04-19T11:45:40.701Z,15.49
2023-04-19T11:48:16.907Z,15.55
2023-04-19T11:50:49.123Z,15.51
2023-04-19T11:53:22.656Z,15.54
2023-04-19T11:55:53.460Z,15.60
2023-04-19T11:58:35.976Z,15.65
2023-04-19T12:01:08.058Z,15.61
2023-04-19T12:03:42.580Z,15.55
2023-04-19T12:06:14.315Z,15.58
2023-04-19T12:11:51.071Z,15.60
2023-04-19T12:14:22.652Z,15.60
2023-04-19T12:17:07.097Z,15.63
2023-04-19T12:19:46.427Z,15.66
2023-04-19T12:22:23.808Z,15.70
2023-04-19T12:24:55.873Z,15.68
2023-04-19T12:27:25.379Z,15.66
2023-04-19T12:29:54.581Z,15.65
2023-04-19T12:32:34.222Z,15.73
2023-04-19T12:35:03.490Z,15.73
2023-04-19T12:37:33.677Z,15.86
2023-04-19T12:40:05.863Z,15.77
2023-04-19T12:42:35.303Z,15.71
2023-04-19T12:52:00.854Z,15.49
2023-04-19T12:54:31.000Z,15.56
2023-04-19T12:57:03.267Z,15.64
2023-04-19T12:59:37.941Z,15.63
2023-04-19T13:02:08.725Z,15.64
2023-04-19T13:04:39.019Z,15.52
2023-04-19T13:07:10.558Z,15.64
2023-04-19T13:09:40.100Z,15.66
2023-04-19T13:14:47.766Z,15.67
2023-04-19T13:17:17.223Z,15.67
2023-04-19T13:19:52.089Z,15.64
2023-04-19T13:22:33.717Z,15.59
2023-04-19T13:25:05.052Z,15.65
2023-04-19T13:27:34.915Z,15.63
2023-04-19T13:30:04.323Z,15.65
2023-04-19T13:32:42.663Z,15.67
2023-04-19T13:37:50.943Z,15.74
2023-04-19T13:40:25.539Z,15.72
2023-04-19T13:42:56.504Z,15.76
2023-04-19T13:48:08.357Z,15.73
2023-04-19T13:50:38.150Z,15.66
2023-04-19T13:53:14.865Z,15.62
2023-04-19T13:56:03.064Z,15.68
2023-04-19T14:01:08.604Z,15.72
2023-04-19T14:03:53.474Z,15.73
2023-04-19T14:06:23.414Z,15.68
2023-04-19T14:11:41.864Z,15.72
2023-04-19T14:14:24.483Z,15.77
2023-04-19T14:17:06.782Z,15.79
2023-04-19T14:19:41.641Z,15.72
2023-04-19T14:22:11.426Z,15.71
2023-04-19T14:25:01.536Z,15.65
2023-04-19T14:27:33.012Z,15.58
2023-04-19T14:30:02.909Z,15.59
2023-04-19T14:32:34.709Z,15.52
2023-04-19T14:35:29.485Z,15.49
2023-04-19T14:37:58.909Z,15.39
2023-04-19T14:40:30.437Z,15.41
2023-04-19T14:43:00.216Z,15.34
2023-04-19T14:45:29.712Z,15.27
2023-04-19T14:47:59.520Z,15.31
2023-04-19T14:50:29.072Z,15.25
2023-04-19T14:53:23.796Z,15.19
2023-04-19T14:55:55.480Z,15.31
2023-04-19T14:58:24.728Z,15.31
2023-04-19T15:00:54.478Z,15.23
2023-04-19T15:03:24.086Z,15.19
2023-04-19T15:05:53.652Z,15.17
2023-04-19T15:08:30.271Z,15.17
2023-04-19T15:11:22.270Z,15.18
2023-04-19T15:14:06.949Z,15.12
2023-04-19T15:16:41.545Z,15.12
2023-04-19T15:19:11.103Z,14.99
2023-04-19T15:21:51.232Z,15.01
2023-04-19T15:24:36.163Z,14.96
2023-04-19T15:27:20.556Z,14.88
2023-04-19T15:29:51.595Z,14.79
2023-04-19T15:32:26.474Z,14.72
2023-04-19T15:35:00.814Z,14.68
2023-04-19T15:37:30.272Z,14.75
2023-04-19T15:40:01.832Z,14.70
2023-04-19T15:42:34.324Z,14.59
2023-04-19T15:45:04.856Z,14.59
2023-04-19T15:47:53.849Z,14.48
2023-04-19T15:50:44.124Z,14.44
2023-04-19T15:53:13.413Z,14.51
2023-04-19T15:55:43.874Z,14.46
2023-04-19T15:58:15.639Z,14.39
2023-04-19T16:00:45.383Z,14.30
2023-04-19T16:06:05.614Z,14.26
2023-04-19T16:08:35.122Z,14.19
2023-04-19T16:11:04.477Z,14.18
2023-04-19T16:13:42.255Z,14.04
2023-04-19T16:16:16.460Z,14.10
2023-04-19T16:21:35.375Z,13.95
2023-04-19T16:26:57.445Z,14.05
2023-04-19T16:29:42.045Z,13.87
2023-04-19T16:32:12.293Z,13.87
2023-04-19T16:34:41.723Z,13.81
2023-04-19T16:37:11.407Z,13.76
2023-04-19T16:39:40.699Z,13.75
2023-04-19T16:42:25.009Z,13.64
2023-04-19T16:44:56.682Z,13.56
2023-04-19T16:47:26.250Z,13.52
2023-04-19T16:49:56.793Z,13.49
2023-04-19T16:52:32.593Z,13.46
2023-04-19T16:55:22.109Z,13.44
2023-04-19T17:00:30.350Z,13.26
2023-04-19T17:03:00.166Z,13.33
2023-04-19T17:05:59.825Z,13.35
2023-04-19T17:08:29.264Z,13.24
2023-04-19T17:10:58.590Z,13.25
2023-04-19T17:13:28.327Z,13.22
2023-04-19T17:16:04.818Z,13.09
2023-04-19T17:18:34.449Z,13.10
2023-04-19T17:21:04.067Z,13.00
2023-04-19T17:23:33.523Z,13.10
2023-04-19T17:26:22.897Z,13.05
2023-04-19T17:28:57.382Z,13.03
2023-04-19T17:31:29.266Z,12.98
2023-04-19T17:34:18.164Z,12.90
2023-04-19T17:36:47.668Z,12.83
2023-04-19T17:39:17.502Z,12.82
2023-04-19T17:42:06.144Z,12.82
2023-04-19T17:44:50.366Z,12.82
2023-04-19T17:47:27.185Z,12.88
2023-04-19T17:50:07.385Z,12.81
2023-04-19T17:52:42.424Z,12.72
2023-04-19T17:55:27.443Z,12.64
2023-04-19T18:00:46.153Z,12.70
2023-04-19T18:03:17.919Z,12.60
2023-04-19T18:05:58.240Z,12.61
2023-04-19T18:08:27.620Z,12.57
2023-04-19T18:10:56.988Z,12.51
2023-04-19T18:13:26.613Z,12.48
2023-04-19T18:18:53.052Z,12.28
2023-04-19T18:24:04.145Z,12.35
2023-04-19T18:26:54.780Z,12.33
2023-04-19T18:29:37.345Z,12.30
2023-04-19T18:32:07.279Z,12.17
2023-04-19T18:34:43.511Z,12.06
2023-04-19T18:37:34.527Z,11.81
2023-04-19T18:40:05.424Z,11.60
2023-04-19T18:42:35.173Z,11.66
2023-04-19T18:45:05.028Z,11.55
2023-04-19T18:47:52.779Z,11.65
2023-04-19T18:50:24.200Z,11.59
2023-04-19T18:52:53.544Z,11.60
2023-04-19T18:55:22.847Z,11.57
2023-04-19T18:57:52.510Z,11.55
2023-04-19T19:00:23.662Z,11.54
2023-04-19T19:03:00.867Z,11.48
2023-04-19T19:05:54.730Z,11.40
2023-04-19T19:08:24.520Z,11.38
2023-04-19T19:13:37.632Z,11.36
2023-04-19T19:16:07.537Z,11.37
2023-04-19T19:18:37.120Z,11.07
2023-04-19T19:21:08.844Z,11.31
2023-04-19T19:23:42.206Z,11.28
2023-04-19T19:26:14.240Z,11.18
2023-04-19T19:28:43.636Z,11.13
2023-04-19T19:31:12.967Z,11.08
2023-04-19T19:33:50.150Z,11.12
2023-04-19T19:36:24.957Z,11.22
2023-04-19T19:42:05.480Z,11.09
2023-04-19T19:44:54.722Z,11.08
2023-04-19T19:47:24.615Z,10.98
2023-04-19T19:50:39.106Z,10.83
2023-04-19T19:52:48.446Z,10.89
2023-04-19T19:55:17.902Z,10.81
2023-04-19T19:58:23.876Z,10.78
2023-04-19T20:00:46.140Z,10.73
2023-04-19T20:03:40.207Z,10.69
2023-04-19T20:09:11.605Z,10.68
2023-04-19T20:11:41.489Z,10.69
2023-04-19T20:14:10.856Z,10.65
2023-04-19T20:16:40.297Z,10.64
2023-04-19T20:19:12.332Z,10.59
2023-04-19T20:21:42.591Z,10.61
2023-04-19T20:24:14.962Z,10.64
2023-04-19T20:26:44.749Z,10.54
2023-04-19T20:29:14.054Z,10.51
2023-04-19T20:31:44.487Z,10.46
2023-04-19T20:34:13.901Z,10.46
2023-04-19T20:36:46.360Z,10.35
2023-04-19T20:39:18.663Z,10.34
2023-04-19T20:41:50.918Z,10.35
2023-04-19T20:44:20.275Z,10.32
2023-04-19T20:46:50.775Z,10.26
2023-04-19T20:49:27.378Z,10.31
2023-04-19T20:52:15.026Z,10.30
2023-04-19T20:54:46.378Z,10.28
2023-04-19T20:57:15.729Z,10.26
2023-04-19T20:59:46.852Z,10.21
2023-04-19T21:02:23.122Z,10.14
2023-04-19T21:04:52.690Z,10.09
2023-04-19T21:07:22.107Z,10.07
2023-04-19T21:09:53.496Z,10.13
2023-04-19T21:12:22.803Z,10.11
2023-04-19T21:14:52.431Z,10.07
2023-04-19T21:17:22.768Z,10.05
2023-04-19T21:19:52.097Z,10.11
2023-04-19T21:22:21.412Z,10.14
2023-04-19T21:24:53.059Z,10.05
2023-04-19T21:27:22.549Z,10.00
2023-04-19T21:29:53.431Z,9.98
2023-04-19T21:32:26.155Z,9.97
2023-04-19T21:35:00.879Z,9.99
2023-04-19T21:37:31.354Z,9.88
2023-04-19T21:40:10.017Z,9.94
2023-04-19T21:42:39.264Z,9.84
2023-04-19T21:45:09.941Z,9.85
2023-04-19T21:47:49.524Z,9.82
2023-04-19T21:50:19.031Z,9.51
2023-04-19T21:52:48.352Z,9.65
2023-04-19T21:55:20.643Z,9.54
2023-04-19T21:57:50.921Z,9.68
2023-04-19T22:00:26.941Z,9.64
2023-04-19T22:02:56.902Z,9.66
2023-04-19T22:05:26.411Z,9.59
2023-04-19T22:08:01.650Z,9.42
2023-04-19T22:10:33.430Z,9.69
2023-04-19T22:13:04.560Z,9.62
2023-04-19T22:15:34.459Z,9.52
2023-04-19T22:18:04.817Z,9.44
2023-04-19T22:20:34.598Z,9.52
2023-04-19T22:23:04.028Z,9.49
2023-04-19T22:25:35.292Z,9.56
2023-04-19T22:28:06.848Z,9.57
2023-04-19T22:30:42.224Z,9.58
2023-04-19T22:33:11.702Z,9.55
2023-04-19T22:35:41.052Z,9.48
2023-04-19T22:38:16.711Z,9.49
2023-04-19T22:40:47.824Z,9.47
2023-04-19T22:43:17.713Z,9.40
2023-04-19T22:45:47.529Z,9.41
2023-04-19T22:48:22.066Z,9.42
2023-04-19T22:50:52.271Z,9.45
2023-04-19T22:53:21.589Z,9.39
2023-04-19T22:55:53.163Z,9.39
2023-04-19T22:58:22.511Z,9.49
2023-04-19T23:00:52.184Z,9.51
2023-04-19T23:03:21.837Z,9.49
2023-04-19T23:05:53.851Z,9.57
2023-04-19T23:08:40.451Z,9.64
2023-04-19T23:11:11.854Z,9.68
2023-04-19T23:13:41.464Z,9.57
2023-04-19T23:16:12.866Z,9.52
2023-04-19T23:18:48.861Z,9.46
2023-04-19T23:21:18.263Z,9.31
2023-04-19T23:23:52.629Z,9.19
2023-04-19T23:26:23.778Z,9.18
2023-04-19T23:28:58.395Z,9.09
2023-04-19T23:31:27.755Z,8.86
2023-04-19T23:34:03.806Z,8.94
2023-04-19T23:36:33.172Z,8.74
2023-04-19T23:39:02.738Z,8.70
2023-04-19T23:41:35.061Z,8.72
2023-04-19T23:44:04.419Z,8.67
2023-04-19T23:46:33.896Z,8.65
2023-04-19T23:49:08.219Z,8.57
2023-04-19T23:51:38.058Z,8.66
2023-04-19T23:54:07.323Z,8.75
2023-04-19T23:56:45.131Z,8.75
2023-04-19T23:59:14.768Z,8.81
